This is the latest recevied weather packets stored in our database for station/object AA4OM-2. If no packets are shown the sender has not sent any weather packets the latest 10 day(s).
| Time | Temp. | Humidity | Pressure | Rain* | Wind** | Luminosity | Snow |
|---|---|---|---|---|---|---|---|
| 1777143969 | 25.56° C | 52% | 1010.8 hPa | 0 mm | - | 1033 W/m² | - |
| 1777143665 | 25.56° C | 51% | 1010.8 hPa | 0 mm | - | 1016 W/m² | - |
| 1777143361 | 25° C | 58% | 1010.7 hPa | 0 mm | - | 949 W/m² | - |
| 1777143057 | 25° C | 57% | 1010.9 hPa | 0 mm | - | 1042 W/m² | - |
| 1777142752 | 25.56° C | 54% | 1010.9 hPa | 0 mm | - | 521 W/m² | - |
| 1777142450 | 25° C | 53% | 1010.9 hPa | 0 mm | - | 1050 W/m² | - |
| 1777142149 | 24.44° C | 56% | 1010.9 hPa | 0 mm | - | 1147 W/m² | - |
| 1777141846 | 24.44° C | 56% | 1010.9 hPa | 0 mm | - | 900 W/m² | - |
| 1777141543 | 25.56° C | 53% | 1010.8 hPa | 0 mm | - | 227 W/m² | - |
| 1777141242 | 25.56° C | 51% | 1011 hPa | 0 mm | - | 1065 W/m² | - |
| 1777140938 | 25.56° C | 54% | 1010.8 hPa | 0 mm | - | 606 W/m² | - |
| 1777140635 | 25.56° C | 53% | 1011 hPa | 0 mm | - | 1026 W/m² | - |
| 1777140332 | 25° C | 54% | 1011 hPa | 0 mm | - | 989 W/m² | - |
| 1777140030 | 23.89° C | 57% | 1011.2 hPa | 0 mm | - | 1002 W/m² | - |
| 1777139726 | 24.44° C | 55% | 1011.2 hPa | 0 mm | - | 488 W/m² | - |
| 1777139421 | 25° C | 55% | 1010.9 hPa | 0 mm | - | 1075 W/m² | - |
| 1777139118 | 24.44° C | 54% | 1011.2 hPa | 0 mm | - | 1007 W/m² | - |
| 1777138815 | 24.44° C | 57% | 1010.9 hPa | 0 mm | - | 987 W/m² | - |
| 1777138510 | 24.44° C | 56% | 1011.1 hPa | 0 mm | - | 997 W/m² | - |
| 1777138206 | 24.44° C | 54% | 1011.1 hPa | 0 mm | - | 984 W/m² | - |
| 1777137903 | 24.44° C | 55% | 1011.1 hPa | 0 mm | - | 974 W/m² | - |
| 1777137598 | 24.44° C | 56% | 1011.4 hPa | 0 mm | - | 973 W/m² | - |
| 1777137296 | 23.89° C | 56% | 1011.3 hPa | 0 mm | - | 968 W/m² | - |
| 1777136993 | 23.89° C | 55% | 1011.3 hPa | 0 mm | - | 967 W/m² | - |
| 1777136689 | 23.33° C | 57% | 1011.3 hPa | 0 mm | - | 962 W/m² | - |
* Rain latest hour (hover to see other rain measurements)
** Current wind speed in m/s (hover to see current wind gust speed)